Zakirovskiy Airport

Jump to: basic info | weather | comments

Related pages: nearby airports | nearby navaids

Basic information (top)

Location: lon 43.448002, lat 77.049599, elev 2,038 ft / 621 m msl
Status: small_airport

Weather (top)

Current conditions for Almaty Airport 6nm (11km) S (rec'd 2014/08/20 12:00Z):

UAAA 201200Z 01004MPS 9999 FEW050 30/M03 Q1018 R88/65D NOSIG

Airport forecast for Almaty Airport 6nm (11km) S (rec'd 2014/08/20 12:18Z):

TAF TAF UAAA 201100Z 2012/2112 04006MPS 9999 NSC TX32/2109Z TN12/2100Z 
      BECMG 2015/2016 14005MPS 
      BECMG 2103/2104 04007MPS

Latest comments (top)

No comments yet for Zakirovskiy Airport

More... (top)

See also NOTAMs and nearby airports and navaids, or visit the Zakirovskiy Airport page at the main OurAirports website..